Time;durP1;ratioP1;P1;durP2;ratioP2;P2;SDS_P1;SDS_P2;PMS_P1;PMS_P2;Temp;Humidity;BMP_temperature;BMP_pressure;BME280_temperature;BME280_humidity;BME280_pressure;Samples;Min_cycle;Max_cycle;Signal;HPM_P1;HPM_P2
2024/03/18 00:40:24;;;;;;;4.40;2.70;;;;;;;0.20;80.30;100286.60;100289;1290;635731;-73
2024/03/18 00:42:49;;;;;;;;;;;;;;;0.19;80.26;100284.55;102690;1263;137272;-73
2024/03/18 00:45:16;;;;;;;5.90;2.70;;;;;;;0.19;80.29;100281.12;102613;1267;107796;-73
2024/03/18 00:47:42;;;;;;;3.20;2.40;;;;;;;0.18;80.28;100281.80;102585;1264;137512;-72
2024/03/18 00:50:11;;;;;;;3.30;2.60;;;;;;;0.18;80.23;100278.54;101959;1265;1003131;-72
2024/03/18 00:52:37;;;;;;;4.90;2.40;;;;;;;0.18;80.23;100278.04;102718;1266;107246;-70
2024/03/18 00:55:04;;;;;;;;;;;;;;;0.20;80.18;100270.02;102532;1262;220324;-71
2024/03/18 00:57:30;;;;;;;3.50;2.50;;;;;;;0.20;80.34;100271.39;102910;1265;107754;-70
2024/03/18 00:59:56;;;;;;;4.60;2.60;;;;;;;0.20;80.37;100264.73;102718;1262;138022;-70
2024/03/18 01:02:21;;;;;;;;;;;;;;;0.20;80.43;100267.11;102609;1254;1003196;-71
2024/03/18 01:04:48;;;;;;;2.90;2.00;;;;;;;0.20;80.28;100260.95;103268;1254;110710;-71
2024/03/18 01:07:14;;;;;;;3.80;2.30;;;;;;;0.19;80.41;100261.30;103210;1256;138590;-71
2024/03/18 01:09:41;;;;;;;5.10;2.50;;;;;;;0.21;80.37;100261.64;103347;1258;109135;-72
2024/03/18 01:12:08;;;;;;;4.10;2.80;;;;;;;0.21;80.24;100257.04;103275;1261;138134;-72
2024/03/18 01:14:34;;;;;;;5.80;2.70;;;;;;;0.21;80.29;100259.27;103307;1255;110920;-71
2024/03/18 01:16:59;;;;;;;;;;;;;;;0.23;80.37;100255.68;103306;1258;108195;-70
2024/03/18 01:19:25;;;;;;;5.60;2.20;;;;;;;0.23;80.41;100255.34;103236;1256;124098;-70
2024/03/18 01:21:51;;;;;;;4.10;2.40;;;;;;;0.24;80.36;100251.41;103300;1255;107363;-71
2024/03/18 01:24:16;;;;;;;;;;;;;;;0.26;80.28;100248.86;103101;1256;137773;-71
2024/03/18 01:26:44;;;;;;;3.80;2.10;;;;;;;0.25;80.33;100257.23;103344;1256;108835;-71
2024/03/18 01:29:10;;;;;;;4.20;2.30;;;;;;;0.26;80.30;100243.57;103289;1258;108329;-71
2024/03/18 01:31:37;;;;;;;4.80;2.40;;;;;;;0.29;80.44;100247.86;103199;1258;137631;-72
2024/03/18 01:34:04;;;;;;;;;;;;;;;0.32;80.34;100243.10;103331;1255;108406;-71
2024/03/18 01:36:32;;;;;;;4.80;2.70;;;;;;;0.32;80.45;100246.17;103256;1256;125789;-71
2024/03/18 01:38:58;;;;;;;5.00;2.70;;;;;;;0.32;80.29;100239.16;103448;1254;110996;-71
2024/03/18 01:41:25;;;;;;;6.10;2.70;;;;;;;0.32;80.20;100235.73;103291;1256;109202;-72
2024/03/18 01:43:51;;;;;;;5.50;2.40;;;;;;;0.34;80.25;100240.03;103239;1256;137547;-71
2024/03/18 01:46:17;;;;;;;;;;;;;;;0.38;80.42;100240.95;103224;1254;106781;-71
2024/03/18 01:48:44;;;;;;;4.70;2.60;;;;;;;0.39;80.28;100238.23;103321;1256;124167;-71
2024/03/18 01:51:11;;;;;;;4.80;2.80;;;;;;;0.38;80.28;100237.02;103306;1256;109732;-72
2024/03/18 01:53:38;;;;;;;4.50;2.30;;;;;;;0.39;80.33;100238.91;103179;1256;138190;-71
2024/03/18 01:56:06;;;;;;;4.00;2.50;;;;;;;0.42;80.39;100239.27;103349;1256;96518;-73
2024/03/18 01:58:33;;;;;;;4.40;2.20;;;;;;;0.46;80.40;100238.44;103694;1255;106814;-73
2024/03/18 02:00:59;;;;;;;5.20;2.50;;;;;;;0.48;80.36;100240.67;103182;1256;137802;-71
2024/03/18 02:03:26;;;;;;;5.50;2.50;;;;;;;0.49;80.29;100234.86;103429;1255;109964;-72
2024/03/18 02:05:50;;;;;;;;;;;;;;;0.52;80.32;100240.36;103214;1256;138482;-72
2024/03/18 02:08:17;;;;;;;3.80;2.80;;;;;;;0.52;80.23;100241.55;103326;1256;96360;-72
2024/03/18 02:10:44;;;;;;;3.80;2.40;;;;;;;0.54;80.45;100240.55;103329;1254;108065;-72
2024/03/18 02:13:10;;;;;;;4.20;2.40;;;;;;;0.54;80.39;100237.49;103182;1255;139317;-72
2024/03/18 02:15:37;;;;;;;4.10;2.20;;;;;;;0.50;80.46;100236.92;103296;1254;110001;-72
2024/03/18 02:18:04;;;;;;;8.00;2.50;;;;;;;0.49;80.61;100240.52;103223;1255;138062;-73
2024/03/18 02:20:30;;;;;;;5.30;2.40;;;;;;;0.49;80.87;100242.73;103429;1256;96430;-73
2024/03/18 02:22:57;;;;;;;5.40;3.00;;;;;;;0.49;80.98;100242.40;103256;1256;108425;-72
2024/03/18 02:25:21;;;;;;;;;;;;;;;0.48;81.12;100238.63;102468;1256;1003056;-72
2024/03/18 02:27:48;;;;;;;6.40;2.70;;;;;;;0.45;81.46;100238.27;103421;1256;110163;-73
2024/03/18 02:30:15;;;;;;;4.30;2.40;;;;;;;0.43;81.53;100236.53;103196;1255;137941;-72
2024/03/18 02:32:42;;;;;;;6.30;2.40;;;;;;;0.41;81.67;100236.19;103354;1256;96925;-73
2024/03/18 02:35:11;;;;;;;5.20;2.50;;;;;;;0.41;81.76;100229.69;103342;1258;108520;-73
2024/03/18 02:37:38;;;;;;;4.00;2.80;;;;;;;0.39;81.99;100229.33;103341;1254;137830;-73
2024/03/18 02:40:07;;;;;;;4.30;2.40;;;;;;;0.37;82.05;100228.10;103308;1255;109205;-73
2024/03/18 02:42:34;;;;;;;7.20;2.70;;;;;;;0.32;82.10;100228.05;103374;1256;137644;-73
2024/03/18 02:45:02;;;;;;;7.20;2.90;;;;;;;0.30;82.28;100227.52;103361;1256;96525;-73
2024/03/18 02:47:28;;;;;;;6.60;2.80;;;;;;;0.26;82.37;100221.86;103391;1256;106221;-73
2024/03/18 02:49:54;;;;;;;4.80;2.80;;;;;;;0.24;82.57;100220.30;103285;1259;96500;-73
2024/03/18 02:52:21;;;;;;;7.10;2.90;;;;;;;0.24;82.66;100218.58;103439;1256;110279;-73
2024/03/18 02:54:45;;;;;;;;;;;;;;;0.23;82.85;100214.98;103267;1255;138728;-73
2024/03/18 02:57:12;;;;;;;4.20;2.70;;;;;;;0.19;82.97;100212.71;103321;1258;96443;-73
2024/03/18 02:59:38;;;;;;;4.70;3.00;;;;;;;0.16;83.09;100210.11;103169;1255;137847;-72
2024/03/18 03:02:04;;;;;;;7.50;3.10;;;;;;;0.12;83.10;100205.64;103164;1254;96350;-73
2024/03/18 03:04:31;;;;;;;4.50;2.70;;;;;;;0.12;83.36;100209.23;103243;1256;110210;-72
2024/03/18 03:06:57;;;;;;;4.30;3.10;;;;;;;0.10;83.41;100205.27;103153;1256;137789;-72
2024/03/18 03:09:22;;;;;;;;;;;;;;;0.07;83.71;100208.33;103364;1256;96470;-73
2024/03/18 03:11:48;;;;;;;4.70;3.00;;;;;;;0.04;83.60;100207.11;103117;1257;124091;-73
2024/03/18 03:14:13;;;;;;;;;;;;;;;0.03;83.76;100208.30;103264;1258;96537;-73
2024/03/18 03:16:39;;;;;;;5.40;3.20;;;;;;;0.01;83.91;100204.52;103259;1258;108969;-72
2024/03/18 03:19:05;;;;;;;;;;;;;;;0.01;84.01;100200.07;103079;1254;137721;-73
2024/03/18 03:21:31;;;;;;;4.90;3.00;;;;;;;-0.01;84.08;100197.82;103232;1256;96452;-72
2024/03/18 03:23:57;;;;;;;4.40;2.90;;;;;;;-0.03;84.07;100195.91;102366;1256;1003450;-73
2024/03/18 03:26:25;;;;;;;4.90;3.30;;;;;;;-0.04;83.95;100195.73;103278;1258;96488;-72
2024/03/18 03:28:52;;;;;;;4.90;3.00;;;;;;;-0.04;84.06;100195.58;103238;1256;110158;-72
2024/03/18 03:31:18;;;;;;;6.00;3.10;;;;;;;-0.01;84.23;100192.02;103074;1256;138007;-72
2024/03/18 03:33:44;;;;;;;4.40;2.90;;;;;;;0.01;84.22;100187.95;103284;1256;96737;-71
2024/03/18 03:36:11;;;;;;;4.60;3.10;;;;;;;0.04;84.36;100187.63;103163;1256;138046;-72
2024/03/18 03:38:38;;;;;;;5.20;3.10;;;;;;;0.05;84.26;100192.93;103386;1256;96349;-73
2024/03/18 03:41:04;;;;;;;7.80;3.50;;;;;;;0.07;84.31;100189.87;103274;1256;110730;-73
2024/03/18 03:43:31;;;;;;;5.50;3.30;;;;;;;0.06;84.09;100191.40;102385;1255;1002977;-73
2024/03/18 03:45:59;;;;;;;4.80;2.80;;;;;;;0.08;84.17;100190.21;103312;1258;98770;-72
2024/03/18 03:48:26;;;;;;;3.80;2.90;;;;;;;0.10;84.32;100192.63;103223;1258;137768;-72
2024/03/18 03:50:54;;;;;;;7.80;3.30;;;;;;;0.13;84.36;100192.30;103360;1256;96458;-72
2024/03/18 03:53:20;;;;;;;5.20;3.30;;;;;;;0.13;84.20;100189.91;103470;1258;110155;-72
2024/03/18 03:55:47;;;;;;;6.10;3.70;;;;;;;0.13;84.15;100187.35;103236;1256;137876;-72
2024/03/18 03:58:14;;;;;;;5.80;3.50;;;;;;;0.12;84.08;100186.66;103316;1258;96547;-73
2024/03/18 04:00:45;;;;;;;8.10;3.60;;;;;;;0.10;84.10;100185.96;103179;1255;137651;-72
2024/03/18 04:03:12;;;;;;;6.10;3.40;;;;;;;0.11;84.14;100184.60;103263;1258;96444;-72
2024/03/18 04:05:39;;;;;;;6.80;3.20;;;;;;;0.10;84.17;100186.64;103220;1256;138249;-71
2024/03/18 04:08:06;;;;;;;8.80;3.70;;;;;;;0.08;84.20;100188.68;103274;1258;106958;-74
2024/03/18 04:10:32;;;;;;;6.20;3.30;;;;;;;0.05;84.33;100187.46;103286;1256;96471;-74
2024/03/18 04:12:58;;;;;;;7.00;3.20;;;;;;;0.02;84.38;100189.31;103258;1258;138058;-74
2024/03/18 04:15:25;;;;;;;5.00;3.30;;;;;;;0.01;84.47;100190.84;103259;1254;96469;-73
2024/03/18 04:17:51;;;;;;;;;;;;;;;-0.01;84.63;100189.95;103175;1256;138749;-73
2024/03/18 04:20:22;;;;;;;6.20;3.30;;;;;;;-0.03;84.97;100189.43;102519;1256;1003403;-73
2024/03/18 04:22:50;;;;;;;5.30;3.30;;;;;;;-0.03;85.19;100186.18;103306;1259;96456;-74
2024/03/18 04:25:17;;;;;;;6.20;3.70;;;;;;;-0.04;85.19;100184.64;103187;1258;137926;-73
2024/03/18 04:27:43;;;;;;;5.90;3.70;;;;;;;-0.05;85.34;100184.96;103312;1256;96468;-73
2024/03/18 04:30:12;;;;;;;;;;;;;;;-0.03;85.59;100179.68;103248;1258;137992;-75
2024/03/18 04:32:38;;;;;;;7.80;3.30;;;;;;;-0.03;85.79;100181.22;103424;1256;106988;-75
2024/03/18 04:35:06;;;;;;;;;;;;;;;-0.03;85.87;100181.05;103222;1254;96490;-75
2024/03/18 04:37:34;;;;;;;5.00;3.20;;;;;;;-0.05;86.06;100183.59;104070;1256;124864;-73
2024/03/18 04:40:00;;;;;;;7.30;3.80;;;;;;;-0.06;86.09;100186.83;102559;1258;1003328;-73
2024/03/18 04:42:27;;;;;;;5.60;3.90;;;;;;;-0.06;86.25;100189.05;103168;1255;138136;-72
2024/03/18 04:44:53;;;;;;;5.80;3.30;;;;;;;-0.05;86.29;100188.89;103179;1258;108332;-73
2024/03/18 04:47:18;;;;;;;;;;;;;;;-0.06;86.26;100195.90;103303;1255;97794;-72
2024/03/18 04:49:44;;;;;;;6.10;3.00;;;;;;;-0.08;86.34;100196.05;102397;1258;1003760;-72
2024/03/18 04:52:10;;;;;;;6.00;3.10;;;;;;;-0.09;86.43;100200.98;103241;1258;97812;-72
2024/03/18 04:54:35;;;;;;;;;;;;;;;-0.11;86.42;100201.33;103154;1254;137951;-72
2024/03/18 04:57:01;;;;;;;7.00;3.50;;;;;;;-0.12;86.66;100205.59;103229;1258;107546;-73
2024/03/18 04:59:27;;;;;;;5.90;3.30;;;;;;;-0.14;86.72;100198.22;102545;1255;1003285;-73
2024/03/18 05:01:54;;;;;;;9.10;3.50;;;;;;;-0.14;86.74;100200.95;103153;1260;108508;-74
2024/03/18 05:04:20;;;;;;;4.80;3.50;;;;;;;-0.13;86.97;100201.65;101770;1260;1003049;-73
2024/03/18 05:06:46;;;;;;;7.00;3.40;;;;;;;-0.10;86.91;100202.52;102416;1260;1003658;-73
2024/03/18 05:09:11;;;;;;;;;;;;;;;-0.09;86.88;100204.08;103156;1260;107599;-72
2024/03/18 05:11:38;;;;;;;4.60;3.50;;;;;;;-0.10;86.95;100200.30;102344;1259;1003710;-72
2024/03/18 05:14:04;;;;;;;8.50;3.70;;;;;;;-0.09;87.17;100201.52;103491;1257;107670;-72
2024/03/18 05:16:35;;;;;;;;;;;;;;;-0.04;87.19;100200.35;103490;1256;97981;-72
2024/03/18 05:19:02;;;;;;;7.50;3.60;;;;;;;-0.01;87.34;100198.16;103471;1256;124546;-72
2024/03/18 05:21:27;;;;;;;;;;;;;;;0.00;87.05;100193.74;103494;1254;107883;-73
2024/03/18 05:23:53;;;;;;;5.00;3.40;;;;;;;0.01;87.27;100190.16;103504;1257;125010;-72
2024/03/18 05:26:21;;;;;;;10.20;4.00;;;;;;;0.01;87.27;100194.79;103558;1257;106753;-72
2024/03/18 05:28:47;;;;;;;6.80;4.10;;;;;;;-0.01;87.16;100194.75;103616;1256;97875;-72
2024/03/18 05:31:13;;;;;;;8.10;4.40;;;;;;;0.02;87.31;100196.33;103474;1257;139138;-72
2024/03/18 05:33:38;;;;;;;;;;;;;;;0.07;87.48;100195.51;103522;1255;106945;-72
2024/03/18 05:36:05;;;;;;;5.50;3.90;;;;;;;0.08;87.54;100196.38;103502;1257;124807;-72
2024/03/18 05:38:33;;;;;;;7.40;3.10;;;;;;;0.10;87.52;100197.08;103793;1255;107629;-73
2024/03/18 05:41:00;;;;;;;7.60;3.60;;;;;;;0.14;87.49;100200.70;103670;1254;97803;-72
2024/03/18 05:43:26;;;;;;;7.60;4.00;;;;;;;0.19;87.79;100200.58;102679;1256;1003139;-73
2024/03/18 05:45:52;;;;;;;5.50;3.40;;;;;;;0.23;87.63;100198.57;102764;1257;1002774;-74
2024/03/18 05:48:19;;;;;;;5.80;3.30;;;;;;;0.26;87.49;100194.65;103381;1257;138739;-74
2024/03/18 05:50:45;;;;;;;6.80;3.90;;;;;;;0.26;87.52;100193.63;103413;1256;108594;-74
2024/03/18 05:53:11;;;;;;;6.40;3.40;;;;;;;0.28;87.52;100196.90;102643;1258;1003147;-74
2024/03/18 05:55:36;;;;;;;;;;;;;;;0.32;87.61;100195.89;103426;1257;138883;-75
2024/03/18 05:58:03;;;;;;;6.70;3.40;;;;;;;0.34;87.66;100193.00;103573;1257;106984;-73
2024/03/18 06:00:29;;;;;;;4.70;3.70;;;;;;;0.34;87.67;100192.48;103441;1255;137966;-74
2024/03/18 06:02:56;;;;;;;7.50;3.60;;;;;;;0.38;87.61;100193.58;102802;1257;1003441;-73
2024/03/18 06:05:22;;;;;;;9.20;3.70;;;;;;;0.41;87.77;100186.92;103484;1254;97760;-73
2024/03/18 06:07:49;;;;;;;11.60;3.70;;;;;;;0.49;87.93;100188.34;103411;1256;138217;-73
2024/03/18 06:10:16;;;;;;;7.10;3.30;;;;;;;0.54;87.69;100186.69;103563;1257;107128;-73
2024/03/18 06:12:43;;;;;;;6.80;3.50;;;;;;;0.57;87.61;100189.11;103415;1259;139613;-72
2024/03/18 06:15:11;;;;;;;8.90;3.70;;;;;;;0.59;87.41;100187.23;103609;1251;107800;-73
2024/03/18 06:17:37;;;;;;;5.80;3.70;;;;;;;0.62;87.27;100185.88;103389;1254;140327;-72
2024/03/18 06:20:06;;;;;;;8.90;3.90;;;;;;;0.63;87.11;100185.20;103491;1257;111346;-72
2024/03/18 06:22:37;;;;;;;9.70;3.90;;;;;;;0.68;87.11;100186.92;103784;1255;108900;-73
2024/03/18 06:27:49;;;;;;;6.30;2.90;;;;;;;0.72;86.68;100185.77;103580;1254;108541;-73
2024/03/18 06:30:17;;;;;;;5.80;3.20;;;;;;;0.75;86.87;100190.42;103464;1257;138571;-69
2024/03/18 06:32:44;;;;;;;4.70;3.00;;;;;;;0.75;86.91;100189.73;103802;1254;111274;-70
2024/03/18 06:35:12;;;;;;;5.20;2.90;;;;;;;0.78;86.80;100193.34;103636;1255;107552;-72
2024/03/18 06:37:39;;;;;;;6.90;3.50;;;;;;;0.78;86.67;100192.84;103407;1257;138125;-70
2024/03/18 06:40:07;;;;;;;5.40;3.00;;;;;;;0.79;86.69;100194.55;103453;1254;109669;-71
2024/03/18 06:42:34;;;;;;;7.80;3.40;;;;;;;0.81;86.73;100192.85;104197;1257;138166;-71
2024/03/18 06:45:00;;;;;;;7.00;3.00;;;;;;;0.81;86.65;100188.23;103499;1257;112086;-71
2024/03/18 06:47:27;;;;;;;6.30;3.10;;;;;;;0.82;86.53;100190.11;103494;1254;107318;-71
2024/03/18 06:49:53;;;;;;;5.80;3.10;;;;;;;0.85;86.71;100190.64;103846;1252;138512;-71
2024/03/18 06:52:18;;;;;;;;;;;;;;;0.85;86.59;100190.30;103644;1254;108038;-71
2024/03/18 06:54:45;;;;;;;6.60;2.90;;;;;;;0.83;86.57;100189.77;102571;1257;1003284;-69
2024/03/18 06:57:11;;;;;;;5.20;3.00;;;;;;;0.85;86.88;100196.80;103440;1256;110883;-70
2024/03/18 06:59:38;;;;;;;7.40;3.70;;;;;;;0.90;86.98;100193.42;103340;1257;138159;-70
2024/03/18 07:02:04;;;;;;;4.90;3.20;;;;;;;0.96;87.16;100196.55;102697;1254;1002949;-71
2024/03/18 07:04:31;;;;;;;6.40;3.60;;;;;;;1.01;87.20;100196.73;103433;1256;107439;-71
2024/03/18 07:06:57;;;;;;;6.00;3.40;;;;;;;1.06;87.15;100197.61;102752;1256;140200;-71
2024/03/18 07:09:24;;;;;;;5.40;3.50;;;;;;;1.10;87.03;100196.97;103275;1253;111555;-71
2024/03/18 07:11:50;;;;;;;5.30;3.90;;;;;;;1.13;86.99;100198.86;103119;1254;138242;-70
2024/03/18 07:14:17;;;;;;;7.70;3.80;;;;;;;1.17;87.02;100199.05;103281;1256;97894;-70
2024/03/18 07:16:43;;;;;;;5.00;3.60;;;;;;;1.22;87.06;100193.75;104167;1253;106491;-72
2024/03/18 07:19:09;;;;;;;8.80;3.90;;;;;;;1.26;87.09;100192.59;103247;1254;138712;-70
2024/03/18 07:21:36;;;;;;;7.80;3.90;;;;;;;1.33;87.02;100195.19;104480;1254;110747;-72
2024/03/18 07:24:03;;;;;;;6.20;3.80;;;;;;;1.39;86.90;100194.51;104117;1254;139698;-72
2024/03/18 07:26:31;;;;;;;8.70;3.80;;;;;;;1.43;86.75;100193.34;104378;1254;96286;-71
2024/03/18 07:28:57;;;;;;;8.00;4.90;;;;;;;1.46;86.67;100196.96;103683;1256;106290;-73
2024/03/18 07:31:22;;;;;;;;;;;;;;;1.50;86.76;100196.98;103184;1256;138442;-74
2024/03/18 07:33:49;;;;;;;7.60;4.00;;;;;;;1.52;86.60;100194.75;103180;1258;113253;-74
2024/03/18 07:36:15;;;;;;;6.70;4.20;;;;;;;1.52;86.55;100195.95;103030;1257;139675;-74
2024/03/18 07:38:41;;;;;;;6.70;4.20;;;;;;;1.54;86.45;100199.72;103256;1256;98330;-74
2024/03/18 07:41:08;;;;;;;9.00;4.30;;;;;;;1.57;86.39;100200.41;104524;1252;110054;-78
2024/03/18 07:43:34;;;;;;;6.40;3.60;;;;;;;1.59;86.20;100202.30;103188;1255;138049;-74
2024/03/18 07:45:59;;;;;;;;;;;;;;;1.59;86.20;100203.33;103310;1255;111181;-73
2024/03/18 07:48:26;;;;;;;4.50;3.70;;;;;;;1.53;86.26;100196.29;103226;1257;124538;-73
2024/03/18 07:50:57;;;;;;;5.20;4.40;;;;;;;1.59;86.31;100208.64;103363;1257;97714;-73
2024/03/18 07:53:24;;;;;;;6.10;4.10;;;;;;;1.65;86.32;100209.89;103336;1255;107553;-72
2024/03/18 07:56:01;;;;;;;5.10;4.00;;;;;;;1.69;86.28;100209.20;103270;1254;137849;-73
2024/03/18 07:58:27;;;;;;;7.90;4.00;;;;;;;1.73;86.24;100212.48;103425;1257;110903;-73
2024/03/18 08:00:55;;;;;;;6.30;4.30;;;;;;;1.75;86.35;100212.98;103216;1254;138196;-73
2024/03/18 08:03:21;;;;;;;7.50;4.60;;;;;;;1.78;86.09;100216.23;103271;1257;97910;-74
2024/03/18 08:05:48;;;;;;;6.60;4.60;;;;;;;1.83;86.21;100215.08;103243;1257;137964;-74
2024/03/18 08:08:14;;;;;;;4.70;4.00;;;;;;;1.87;86.24;100218.34;103365;1256;97880;-74
2024/03/18 08:10:41;;;;;;;7.50;4.50;;;;;;;1.92;86.28;100215.95;103417;1254;112968;-74
2024/03/18 08:13:09;;;;;;;7.20;4.30;;;;;;;1.97;86.13;100218.52;103280;1254;138392;-73
2024/03/18 08:15:38;;;;;;;6.80;4.60;;;;;;;2.00;86.04;100214.27;103213;1254;98317;-73
2024/03/18 08:18:05;;;;;;;5.30;4.60;;;;;;;2.05;86.07;100213.23;104581;1251;138493;-72
2024/03/18 08:20:32;;;;;;;8.90;4.20;;;;;;;2.09;85.87;100214.95;104019;1257;96291;-72
2024/03/18 08:22:59;;;;;;;6.60;4.40;;;;;;;2.14;85.79;100212.55;103346;1254;111676;-72
2024/03/18 08:25:26;;;;;;;5.10;4.30;;;;;;;2.17;85.31;100211.89;103193;1254;139749;-72
2024/03/18 08:27:52;;;;;;;7.10;4.60;;;;;;;2.19;85.40;100212.40;103318;1256;98301;-76
2024/03/18 08:30:17;;;;;;;;;;;;;;;2.24;85.34;100207.27;103176;1254;137820;-74
2024/03/18 08:32:44;;;;;;;5.10;4.40;;;;;;;2.26;85.42;100204.00;103868;1255;97807;-73
2024/03/18 08:35:21;;;;;;;5.70;4.50;;;;;;;2.29;85.07;100201.09;103737;1254;110360;-72
2024/03/18 08:37:48;;;;;;;5.70;4.80;;;;;;;2.36;85.33;100201.61;103215;1256;137938;-73
2024/03/18 08:40:15;;;;;;;;;;;;;;;2.44;85.29;100202.29;103408;1256;97703;-72
2024/03/18 08:42:42;;;;;;;6.00;4.90;;;;;;;2.47;84.95;100198.85;104092;1255;124783;-72
2024/03/18 08:45:10;;;;;;;5.40;4.80;;;;;;;2.51;84.60;100192.70;103316;1254;98185;-73
2024/03/18 08:47:36;;;;;;;5.20;4.40;;;;;;;2.63;84.84;100195.07;103295;1254;138088;-73
2024/03/18 08:50:02;;;;;;;;;;;;;;;2.75;84.27;100195.77;103564;1254;107616;-72
2024/03/18 08:52:28;;;;;;;5.90;4.40;;;;;;;2.81;83.90;100197.80;103323;1254;98513;-73
2024/03/18 08:54:55;;;;;;;5.50;4.20;;;;;;;2.89;83.88;100200.38;103250;1254;138319;-75
2024/03/18 08:57:21;;;;;;;4.50;4.00;;;;;;;2.97;83.89;100204.13;103946;1254;97878;-79
2024/03/18 08:59:48;;;;;;;5.80;3.80;;;;;;;3.05;83.61;100201.19;103290;1254;139524;-74
2024/03/18 09:02:15;;;;;;;5.90;4.20;;;;;;;3.08;83.41;100188.48;103659;1254;107740;-74
2024/03/18 09:04:41;;;;;;;4.20;3.80;;;;;;;3.19;83.10;100193.58;103270;1255;97694;-73
2024/03/18 09:07:10;;;;;;;4.60;4.10;;;;;;;3.23;82.77;100193.06;103811;1253;137803;-73
2024/03/18 09:09:35;;;;;;;;;;;;;;;3.25;82.28;100191.52;103504;1253;97678;-73
2024/03/18 09:12:02;;;;;;;5.20;4.00;;;;;;;3.24;82.11;100196.17;104428;1254;124501;-74
2024/03/18 09:14:29;;;;;;;5.20;3.60;;;;;;;3.30;82.56;100197.68;103628;1255;107574;-74
2024/03/18 09:16:57;;;;;;;5.10;4.20;;;;;;;3.37;82.36;100197.65;103517;1252;99027;-74
2024/03/18 09:19:23;;;;;;;4.70;4.20;;;;;;;3.43;82.35;100198.16;103263;1257;138496;-71
2024/03/18 09:21:51;;;;;;;4.40;4.00;;;;;;;3.47;81.86;100195.39;103790;1253;98128;-72
2024/03/18 09:24:18;;;;;;;5.30;4.60;;;;;;;3.55;82.32;100198.61;103403;1257;138190;-71
2024/03/18 09:26:44;;;;;;;6.10;4.40;;;;;;;3.62;82.29;100194.28;102785;1254;1003756;-72
2024/03/18 09:29:10;;;;;;;7.60;4.20;;;;;;;3.72;82.14;100194.91;103558;1257;97813;-72
2024/03/18 09:31:37;;;;;;;8.40;4.90;;;;;;;3.80;81.88;100195.06;103282;1253;138073;-73
2024/03/18 09:34:03;;;;;;;4.50;3.80;;;;;;;3.87;81.71;100193.46;103892;1254;97823;-72
2024/03/18 09:36:30;;;;;;;4.70;4.20;;;;;;;3.88;81.55;100198.10;103576;1254;138112;-73
2024/03/18 09:38:59;;;;;;;5.90;4.10;;;;;;;3.87;81.55;100195.02;103452;1252;108128;-72
2024/03/18 09:41:27;;;;;;;5.10;4.30;;;;;;;3.87;81.61;100201.03;103555;1254;97862;-71
2024/03/18 09:43:54;;;;;;;6.20;4.10;;;;;;;3.86;81.73;100200.87;103254;1253;137854;-70
2024/03/18 09:46:21;;;;;;;5.00;4.10;;;;;;;3.81;81.22;100201.95;103664;1254;98077;-70
2024/03/18 09:48:48;;;;;;;6.40;5.00;;;;;;;3.75;81.41;100202.11;103364;1254;138398;-69
2024/03/18 09:51:17;;;;;;;4.90;4.00;;;;;;;3.68;81.37;100201.66;103445;1257;107286;-70
2024/03/18 09:53:46;;;;;;;4.90;4.10;;;;;;;3.62;81.49;100205.98;103418;1254;139332;-71
2024/03/18 09:56:15;;;;;;;5.00;4.30;;;;;;;3.59;81.71;100210.46;103603;1254;107170;-70
2024/03/18 09:58:42;;;;;;;5.10;4.50;;;;;;;3.57;81.88;100210.11;103744;1256;98009;-70
2024/03/18 10:01:11;;;;;;;6.30;4.00;;;;;;;3.48;81.97;100201.23;103617;1254;137982;-75
2024/03/18 10:03:41;;;;;;;6.30;4.40;;;;;;;3.48;81.86;100213.43;103552;1255;107108;-73
2024/03/18 10:06:09;;;;;;;5.90;4.60;;;;;;;3.46;82.13;100213.79;103788;1253;138574;-74
2024/03/18 10:08:37;;;;;;;6.70;4.50;;;;;;;3.46;82.29;100215.85;104177;1251;107842;-73
2024/03/18 10:11:04;;;;;;;4.90;4.40;;;;;;;3.46;82.42;100214.14;103675;1256;97842;-74
2024/03/18 10:13:31;;;;;;;6.80;4.60;;;;;;;3.44;82.33;100213.12;103607;1252;137878;-72
2024/03/18 10:15:57;;;;;;;7.70;4.50;;;;;;;3.44;82.56;100211.73;103974;1254;107403;-73
2024/03/18 10:18:26;;;;;;;;;;;;;;;3.47;83.02;100212.40;103905;1253;138030;-70
2024/03/18 10:20:54;;;;;;;8.50;5.30;;;;;;;3.45;83.17;100214.48;103542;1255;107836;-71
2024/03/18 10:23:22;;;;;;;9.20;5.10;;;;;;;3.45;83.07;100217.41;103664;1257;97803;-72
2024/03/18 10:25:49;;;;;;;5.70;5.10;;;;;;;3.47;83.39;100217.21;103414;1252;138214;-69
2024/03/18 10:28:18;;;;;;;6.90;5.70;;;;;;;3.47;83.38;100216.70;103614;1254;108162;-68
2024/03/18 10:30:46;;;;;;;7.50;5.70;;;;;;;3.43;83.00;100216.04;103463;1254;137999;-68
2024/03/18 10:33:17;;;;;;;7.80;5.70;;;;;;;3.37;82.79;100211.75;103453;1253;107239;-68
2024/03/18 10:35:48;;;;;;;7.40;5.90;;;;;;;3.31;82.96;100212.13;103696;1252;138196;-69
2024/03/18 10:38:22;;;;;;;14.10;6.20;;;;;;;3.21;82.93;100209.40;103647;1253;110806;-68
2024/03/18 10:40:54;;;;;;;9.60;6.20;;;;;;;3.18;83.11;100213.52;103480;1253;107008;-68
2024/03/18 10:43:32;;;;;;;8.60;6.60;;;;;;;3.14;82.90;100214.91;103610;1253;139511;-70
2024/03/18 10:45:59;;;;;;;10.50;6.50;;;;;;;3.08;83.28;100218.04;103487;1253;108863;-70
2024/03/18 10:48:28;;;;;;;10.90;7.10;;;;;;;3.03;83.38;100214.59;103400;1254;138396;-70
2024/03/18 10:50:55;;;;;;;10.60;7.30;;;;;;;2.99;83.57;100215.98;103545;1252;110438;-69
2024/03/18 10:53:25;;;;;;;9.80;6.80;;;;;;;2.97;83.73;100214.77;103423;1254;108026;-70
2024/03/18 10:56:01;;;;;;;13.70;8.30;;;;;;;2.95;83.75;100217.02;103912;1254;96226;-69
2024/03/18 10:58:30;;;;;;;12.60;7.30;;;;;;;2.94;84.09;100220.45;103339;1257;108811;-69
2024/03/18 11:00:58;;;;;;;7.70;6.70;;;;;;;2.94;84.06;100218.05;103342;1257;138218;-69
2024/03/18 11:03:25;;;;;;;9.50;7.30;;;;;;;2.93;84.24;100217.70;103791;1257;109061;-69
2024/03/18 11:05:53;;;;;;;12.90;7.20;;;;;;;2.98;84.50;100218.20;103416;1252;138604;-70
2024/03/18 11:08:21;;;;;;;9.00;7.10;;;;;;;3.05;84.76;100218.54;103560;1256;100741;-70
2024/03/18 11:10:49;;;;;;;10.60;7.70;;;;;;;3.12;84.71;100214.58;103618;1253;107159;-70
2024/03/18 11:13:18;;;;;;;8.80;7.10;;;;;;;3.17;84.64;100214.04;103325;1257;138211;-69
2024/03/18 11:15:55;;;;;;;11.50;7.70;;;;;;;3.22;84.58;100209.21;103552;1254;111543;-70
2024/03/18 11:18:26;;;;;;;16.90;7.40;;;;;;;3.28;84.74;100208.70;103416;1257;139085;-69
2024/03/18 11:20:54;;;;;;;12.00;8.10;;;;;;;3.28;84.48;100208.00;103646;1257;98343;-69
2024/03/18 11:23:22;;;;;;;10.90;6.90;;;;;;;3.26;84.58;100206.30;103541;1251;107745;-68
2024/03/18 11:25:55;;;;;;;8.00;5.90;;;;;;;3.20;84.60;100203.54;103412;1256;139500;-69
2024/03/18 11:28:32;;;;;;;7.30;6.10;;;;;;;3.14;84.29;100207.52;103625;1256;111154;-69
2024/03/18 11:31:00;;;;;;;10.00;6.50;;;;;;;3.10;84.44;100206.52;103314;1252;139303;-69
2024/03/18 11:33:29;;;;;;;8.90;6.90;;;;;;;3.08;84.89;100207.21;103683;1255;97816;-68
2024/03/18 11:35:55;;;;;;;10.80;8.00;;;;;;;3.08;84.95;100208.07;103507;1254;138069;-68
2024/03/18 11:38:22;;;;;;;12.40;9.00;;;;;;;3.07;85.08;100206.70;103523;1257;97800;-68
2024/03/18 11:40:48;;;;;;;10.00;8.40;;;;;;;3.07;85.63;100205.33;102921;1252;1002818;-65
2024/03/18 11:43:15;;;;;;;11.20;7.90;;;;;;;3.13;86.08;100208.21;103408;1252;138444;-69
2024/03/18 11:45:47;;;;;;;9.20;7.50;;;;;;;3.17;86.12;100209.23;103516;1253;97809;-69
2024/03/18 11:48:14;;;;;;;16.50;7.70;;;;;;;3.17;85.92;100206.14;103401;1252;138431;-69
2024/03/18 11:50:41;;;;;;;7.40;6.10;;;;;;;3.23;85.98;100209.05;103542;1252;97843;-69
2024/03/18 11:53:08;;;;;;;8.10;6.40;;;;;;;3.31;86.11;100209.02;103340;1254;111493;-69
2024/03/18 11:55:36;;;;;;;9.40;6.10;;;;;;;3.40;85.93;100207.62;103763;1252;138051;-69
2024/03/18 11:58:03;;;;;;;8.80;6.40;;;;;;;3.48;85.92;100202.09;103457;1256;97906;-69
2024/03/18 12:00:32;;;;;;;7.50;6.10;;;;;;;3.58;85.96;100199.12;104047;1252;137913;-69
2024/03/18 12:03:00;;;;;;;9.30;5.80;;;;;;;3.66;85.69;100196.34;104085;1252;97816;-69
2024/03/18 12:05:27;;;;;;;8.80;6.10;;;;;;;3.76;85.67;100196.27;103486;1252;112099;-69